<?xml version='1.0' encoding='UTF-8'?><gpx version="1.1" creator="JPX - https://github.com/jenetics/jpx" xmlns="http://www.topografix.com/GPX/1/1"><trk><trkseg><trkpt lat="43.0663049" lon="12.4154065"><ele>184.0</ele><time>2026-04-25T16:16:31.606Z</time></trkpt><trkpt lat="43.0663787" lon="12.4153785"><ele>184.0</ele><time>2026-04-25T16:16:33.605Z</time></trkpt><trkpt lat="43.0664707" lon="12.4152864"><ele>184.0</ele><time>2026-04-25T16:16:35.605Z</time></trkpt><trkpt lat="43.066534" lon="12.4152461"><ele>184.0</ele><time>2026-04-25T16:16:36.606Z</time></trkpt><trkpt lat="43.0665974" lon="12.4152131"><ele>184.0</ele><time>2026-04-25T16:16:37.605Z</time></trkpt><trkpt lat="43.0666669" lon="12.4151842"><ele>184.0</ele><time>2026-04-25T16:16:38.606Z</time></trkpt><trkpt lat="43.0667424" lon="12.4151797"><ele>184.2</ele><time>2026-04-25T16:16:39.605Z</time></trkpt><trkpt lat="43.0668343" lon="12.4152114"><ele>184.39999999999998</ele><time>2026-04-25T16:16:40.605Z</time></trkpt><trkpt lat="43.066929" lon="12.4152619"><ele>184.6</ele><time>2026-04-25T16:16:41.605Z</time></trkpt><trkpt lat="43.0670289" lon="12.4153218"><ele>184.8</ele><time>2026-04-25T16:16:42.603Z</time></trkpt><trkpt lat="43.0671459" lon="12.4153894"><ele>185.0</ele><time>2026-04-25T16:16:43.605Z</time></trkpt><trkpt lat="43.0672897" lon="12.4154693"><ele>184.66666666666666</ele><time>2026-04-25T16:16:44.605Z</time></trkpt><trkpt lat="43.0674652" lon="12.4155704"><ele>184.33333333333334</ele><time>2026-04-25T16:16:45.606Z</time></trkpt><trkpt lat="43.0676595" lon="12.4156838"><ele>184.0</ele><time>2026-04-25T16:16:46.604Z</time></trkpt><trkpt lat="43.0678444" lon="12.4157935"><ele>184.0</ele><time>2026-04-25T16:16:47.605Z</time></trkpt><trkpt lat="43.0680248" lon="12.4159041"><ele>184.0</ele><time>2026-04-25T16:16:48.605Z</time></trkpt><trkpt lat="43.0682039" lon="12.4160128"><ele>184.0</ele><time>2026-04-25T16:16:49.605Z</time></trkpt><trkpt lat="43.068381" lon="12.4161186"><ele>184.0</ele><time>2026-04-25T16:16:50.606Z</time></trkpt><trkpt lat="43.0685539" lon="12.4162314"><ele>184.0</ele><time>2026-04-25T16:16:51.605Z</time></trkpt><trkpt lat="43.068734" lon="12.4163408"><ele>184.0</ele><time>2026-04-25T16:16:52.605Z</time></trkpt><trkpt lat="43.068922" lon="12.4164573"><ele>184.0</ele><time>2026-04-25T16:16:53.605Z</time></trkpt><trkpt lat="43.0691143" lon="12.4165781"><ele>184.0</ele><time>2026-04-25T16:16:54.606Z</time></trkpt><trkpt lat="43.0693145" lon="12.4167023"><ele>184.0</ele><time>2026-04-25T16:16:55.604Z</time></trkpt><trkpt lat="43.0695218" lon="12.4168318"><ele>184.0</ele><time>2026-04-25T16:16:56.605Z</time></trkpt><trkpt lat="43.0697322" lon="12.4169644"><ele>184.0</ele><time>2026-04-25T16:16:57.605Z</time></trkpt><trkpt lat="43.069946" lon="12.4170966"><ele>183.5</ele><time>2026-04-25T16:16:58.605Z</time></trkpt><trkpt lat="43.0701552" lon="12.4172302"><ele>183.0</ele><time>2026-04-25T16:16:59.605Z</time></trkpt><trkpt lat="43.0703662" lon="12.4173603"><ele>183.0</ele><time>2026-04-25T16:17:00.605Z</time></trkpt><trkpt lat="43.070575" lon="12.4174917"><ele>183.0</ele><time>2026-04-25T16:17:01.605Z</time></trkpt><trkpt lat="43.0707782" lon="12.4176198"><ele>183.33333333333334</ele><time>2026-04-25T16:17:02.606Z</time></trkpt><trkpt lat="43.0709782" lon="12.4177461"><ele>183.66666666666669</ele><time>2026-04-25T16:17:03.606Z</time></trkpt><trkpt lat="43.0711758" lon="12.417864"><ele>184.0</ele><time>2026-04-25T16:17:04.604Z</time></trkpt><trkpt lat="43.0713685" lon="12.4179858"><ele>184.0</ele><time>2026-04-25T16:17:05.605Z</time></trkpt><trkpt lat="43.0715604" lon="12.4181091"><ele>184.0</ele><time>2026-04-25T16:17:06.605Z</time></trkpt><trkpt lat="43.0717536" lon="12.418229"><ele>184.0</ele><time>2026-04-25T16:17:07.603Z</time></trkpt><trkpt lat="43.0719508" lon="12.4183518"><ele>184.0</ele><time>2026-04-25T16:17:08.605Z</time></trkpt><trkpt lat="43.0721544" lon="12.4184805"><ele>184.0</ele><time>2026-04-25T16:17:09.604Z</time></trkpt><trkpt lat="43.0723552" lon="12.4186034"><ele>184.0</ele><time>2026-04-25T16:17:10.605Z</time></trkpt><trkpt lat="43.0725603" lon="12.4187298"><ele>184.66666666666669</ele><time>2026-04-25T16:17:11.605Z</time></trkpt><trkpt lat="43.0727614" lon="12.4188571"><ele>185.33333333333334</ele><time>2026-04-25T16:17:12.605Z</time></trkpt><trkpt lat="43.0729657" lon="12.4189872"><ele>186.0</ele><time>2026-04-25T16:17:13.606Z</time></trkpt><trkpt lat="43.073173" lon="12.4191174"><ele>186.5</ele><time>2026-04-25T16:17:14.605Z</time></trkpt><trkpt lat="43.0733807" lon="12.4192461"><ele>187.0</ele><time>2026-04-25T16:17:15.604Z</time></trkpt><trkpt lat="43.0735854" lon="12.4193804"><ele>187.0</ele><time>2026-04-25T16:17:16.606Z</time></trkpt><trkpt lat="43.0737879" lon="12.4195068"><ele>187.0</ele><time>2026-04-25T16:17:17.606Z</time></trkpt><trkpt lat="43.0739962" lon="12.4196342"><ele>187.33333333333334</ele><time>2026-04-25T16:17:18.604Z</time></trkpt><trkpt lat="43.0741995" lon="12.4197655"><ele>187.66666666666666</ele><time>2026-04-25T16:17:19.605Z</time></trkpt><trkpt lat="43.0743817" lon="12.41989"><ele>188.0</ele><time>2026-04-25T16:17:20.605Z</time></trkpt><trkpt lat="43.0745559" lon="12.4200006"><ele>188.0</ele><time>2026-04-25T16:17:21.604Z</time></trkpt><trkpt lat="43.0747233" lon="12.4201041"><ele>188.0</ele><time>2026-04-25T16:17:22.605Z</time></trkpt><trkpt lat="43.0748809" lon="12.420209"><ele>188.0</ele><time>2026-04-25T16:17:23.606Z</time></trkpt><trkpt lat="43.0750147" lon="12.4202985"><ele>187.75</ele><time>2026-04-25T16:17:24.604Z</time></trkpt><trkpt lat="43.0751443" lon="12.4203863"><ele>187.5</ele><time>2026-04-25T16:17:25.605Z</time></trkpt><trkpt lat="43.0752453" lon="12.4204714"><ele>187.25</ele><time>2026-04-25T16:17:26.604Z</time></trkpt><trkpt lat="43.0753333" lon="12.4205665"><ele>187.0</ele><time>2026-04-25T16:17:27.605Z</time></trkpt><trkpt lat="43.0753882" lon="12.420716"><ele>186.75</ele><time>2026-04-25T16:17:28.606Z</time></trkpt><trkpt lat="43.0754313" lon="12.4208878"><ele>186.5</ele><time>2026-04-25T16:17:29.606Z</time></trkpt><trkpt lat="43.0754609" lon="12.4210833"><ele>186.25</ele><time>2026-04-25T16:17:30.605Z</time></trkpt><trkpt lat="43.0754864" lon="12.4212768"><ele>186.0</ele><time>2026-04-25T16:17:31.606Z</time></trkpt><trkpt lat="43.0755104" lon="12.4214582"><ele>186.0</ele><time>2026-04-25T16:17:32.605Z</time></trkpt><trkpt lat="43.0755532" lon="12.4216161"><ele>186.0</ele><time>2026-04-25T16:17:33.605Z</time></trkpt><trkpt lat="43.075619" lon="12.4217534"><ele>186.0</ele><time>2026-04-25T16:17:34.604Z</time></trkpt><trkpt lat="43.0757058" lon="12.4218795"><ele>186.0</ele><time>2026-04-25T16:17:35.604Z</time></trkpt><trkpt lat="43.0758023" lon="12.4219998"><ele>186.60000000000002</ele><time>2026-04-25T16:17:36.606Z</time></trkpt><trkpt lat="43.0758966" lon="12.4221038"><ele>187.2</ele><time>2026-04-25T16:17:37.605Z</time></trkpt><trkpt lat="43.0759773" lon="12.4221973"><ele>187.8</ele><time>2026-04-25T16:17:38.605Z</time></trkpt><trkpt lat="43.0760523" lon="12.4222864"><ele>188.39999999999998</ele><time>2026-04-25T16:17:39.605Z</time></trkpt><trkpt lat="43.0761142" lon="12.42236"><ele>189.0</ele><time>2026-04-25T16:17:40.606Z</time></trkpt><trkpt lat="43.0761855" lon="12.4224393"><ele>189.0</ele><time>2026-04-25T16:17:42.605Z</time></trkpt><trkpt lat="43.0762857" lon="12.4224293"><ele>189.0</ele><time>2026-04-25T16:17:45.604Z</time></trkpt><trkpt lat="43.0763225" lon="12.4223419"><ele>189.0</ele><time>2026-04-25T16:17:46.604Z</time></trkpt><trkpt lat="43.0763694" lon="12.4222454"><ele>189.0</ele><time>2026-04-25T16:17:47.605Z</time></trkpt><trkpt lat="43.076409" lon="12.4221137"><ele>189.0</ele><time>2026-04-25T16:17:48.605Z</time></trkpt><trkpt lat="43.0764555" lon="12.4219691"><ele>189.0</ele><time>2026-04-25T16:17:49.606Z</time></trkpt><trkpt lat="43.0765116" lon="12.4217826"><ele>189.0</ele><time>2026-04-25T16:17:50.605Z</time></trkpt><trkpt lat="43.0765662" lon="12.421601"><ele>189.0</ele><time>2026-04-25T16:17:51.606Z</time></trkpt><trkpt lat="43.0766282" lon="12.4214029"><ele>189.0</ele><time>2026-04-25T16:17:52.605Z</time></trkpt><trkpt lat="43.076693" lon="12.4211943"><ele>189.66666666666666</ele><time>2026-04-25T16:17:53.605Z</time></trkpt><trkpt lat="43.0767597" lon="12.4209766"><ele>190.33333333333331</ele><time>2026-04-25T16:17:54.605Z</time></trkpt><trkpt lat="43.0768197" lon="12.4207577"><ele>191.0</ele><time>2026-04-25T16:17:55.604Z</time></trkpt><trkpt lat="43.0768851" lon="12.4205338"><ele>190.66666666666666</ele><time>2026-04-25T16:17:56.605Z</time></trkpt><trkpt lat="43.0769447" lon="12.4203118"><ele>190.33333333333334</ele><time>2026-04-25T16:17:57.606Z</time></trkpt><trkpt lat="43.0770025" lon="12.4200817"><ele>190.0</ele><time>2026-04-25T16:17:58.605Z</time></trkpt><trkpt lat="43.0770652" lon="12.4198447"><ele>189.0</ele><time>2026-04-25T16:17:59.604Z</time></trkpt><trkpt lat="43.0771281" lon="12.4196121"><ele>188.0</ele><time>2026-04-25T16:18:00.605Z</time></trkpt><trkpt lat="43.0771937" lon="12.419371"><ele>187.0</ele><time>2026-04-25T16:18:01.606Z</time></trkpt><trkpt lat="43.0772583" lon="12.4191356"><ele>187.0</ele><time>2026-04-25T16:18:02.605Z</time></trkpt><trkpt lat="43.0773227" lon="12.4188995"><ele>187.0</ele><time>2026-04-25T16:18:03.605Z</time></trkpt><trkpt lat="43.0773834" lon="12.4186808"><ele>187.0</ele><time>2026-04-25T16:18:04.604Z</time></trkpt><trkpt lat="43.0774424" lon="12.4184606"><ele>187.66666666666669</ele><time>2026-04-25T16:18:05.606Z</time></trkpt><trkpt lat="43.0775009" lon="12.4182394"><ele>188.33333333333334</ele><time>2026-04-25T16:18:06.605Z</time></trkpt><trkpt lat="43.0775577" lon="12.4180272"><ele>189.0</ele><time>2026-04-25T16:18:07.605Z</time></trkpt><trkpt lat="43.0776115" lon="12.4178271"><ele>189.25</ele><time>2026-04-25T16:18:08.604Z</time></trkpt><trkpt lat="43.077667" lon="12.4176347"><ele>189.5</ele><time>2026-04-25T16:18:09.605Z</time></trkpt><trkpt lat="43.0777208" lon="12.4174481"><ele>189.75</ele><time>2026-04-25T16:18:10.606Z</time></trkpt><trkpt lat="43.0777818" lon="12.4172783"><ele>190.0</ele><time>2026-04-25T16:18:11.603Z</time></trkpt><trkpt lat="43.0778484" lon="12.4171203"><ele>190.0</ele><time>2026-04-25T16:18:12.604Z</time></trkpt><trkpt lat="43.0779218" lon="12.4169816"><ele>190.0</ele><time>2026-04-25T16:18:13.606Z</time></trkpt><trkpt lat="43.0780017" lon="12.416861"><ele>190.0</ele><time>2026-04-25T16:18:14.606Z</time></trkpt><trkpt lat="43.0780771" lon="12.4167593"><ele>190.0</ele><time>2026-04-25T16:18:15.606Z</time></trkpt><trkpt lat="43.0781432" lon="12.4166695"><ele>190.0</ele><time>2026-04-25T16:18:16.606Z</time></trkpt><trkpt lat="43.0782079" lon="12.4165932"><ele>190.16666666666669</ele><time>2026-04-25T16:18:17.604Z</time></trkpt><trkpt lat="43.0782688" lon="12.4165302"><ele>190.33333333333334</ele><time>2026-04-25T16:18:18.604Z</time></trkpt><trkpt lat="43.0783383" lon="12.4164729"><ele>190.5</ele><time>2026-04-25T16:18:19.605Z</time></trkpt><trkpt lat="43.0784136" lon="12.4164317"><ele>190.66666666666666</ele><time>2026-04-25T16:18:20.605Z</time></trkpt><trkpt lat="43.0784873" lon="12.4164115"><ele>190.83333333333331</ele><time>2026-04-25T16:18:21.606Z</time></trkpt><trkpt lat="43.0785541" lon="12.4164089"><ele>191.0</ele><time>2026-04-25T16:18:22.605Z</time></trkpt><trkpt lat="43.0786474" lon="12.4164388"><ele>191.0</ele><time>2026-04-25T16:18:25.606Z</time></trkpt><trkpt lat="43.0787586" lon="12.4165071"><ele>191.0</ele><time>2026-04-25T16:18:27.605Z</time></trkpt><trkpt lat="43.0788399" lon="12.416585"><ele>191.0</ele><time>2026-04-25T16:18:28.604Z</time></trkpt><trkpt lat="43.0789336" lon="12.4166562"><ele>191.0</ele><time>2026-04-25T16:18:29.605Z</time></trkpt><trkpt lat="43.0790368" lon="12.4167685"><ele>191.5</ele><time>2026-04-25T16:18:30.606Z</time></trkpt><trkpt lat="43.079144" lon="12.4168735"><ele>192.0</ele><time>2026-04-25T16:18:31.606Z</time></trkpt><trkpt lat="43.0792511" lon="12.4169852"><ele>192.5</ele><time>2026-04-25T16:18:32.605Z</time></trkpt><trkpt lat="43.0793644" lon="12.4170973"><ele>193.0</ele><time>2026-04-25T16:18:33.604Z</time></trkpt><trkpt lat="43.0794694" lon="12.417201"><ele>193.0</ele><time>2026-04-25T16:18:34.605Z</time></trkpt><trkpt lat="43.079568" lon="12.4173"><ele>193.0</ele><time>2026-04-25T16:18:35.604Z</time></trkpt><trkpt lat="43.0796612" lon="12.4173985"><ele>193.0</ele><time>2026-04-25T16:18:36.604Z</time></trkpt><trkpt lat="43.0797566" lon="12.417501"><ele>193.0</ele><time>2026-04-25T16:18:37.605Z</time></trkpt><trkpt lat="43.0798543" lon="12.4176057"><ele>193.5</ele><time>2026-04-25T16:18:38.605Z</time></trkpt><trkpt lat="43.0799496" lon="12.4177139"><ele>194.0</ele><time>2026-04-25T16:18:39.605Z</time></trkpt><trkpt lat="43.0800359" lon="12.4178182"><ele>194.5</ele><time>2026-04-25T16:18:40.604Z</time></trkpt><trkpt lat="43.0801171" lon="12.4179299"><ele>195.0</ele><time>2026-04-25T16:18:41.605Z</time></trkpt><trkpt lat="43.0802023" lon="12.4180421"><ele>195.0</ele><time>2026-04-25T16:18:42.605Z</time></trkpt><trkpt lat="43.0802788" lon="12.4181584"><ele>195.0</ele><time>2026-04-25T16:18:43.605Z</time></trkpt><trkpt lat="43.080351" lon="12.418274"><ele>195.0</ele><time>2026-04-25T16:18:44.605Z</time></trkpt><trkpt lat="43.0804164" lon="12.4183894"><ele>195.0</ele><time>2026-04-25T16:18:45.605Z</time></trkpt><trkpt lat="43.0804777" lon="12.4185086"><ele>195.0</ele><time>2026-04-25T16:18:46.604Z</time></trkpt><trkpt lat="43.0805278" lon="12.4186183"><ele>195.0</ele><time>2026-04-25T16:18:47.605Z</time></trkpt><trkpt lat="43.080566" lon="12.4187328"><ele>195.0</ele><time>2026-04-25T16:18:48.606Z</time></trkpt><trkpt lat="43.0806098" lon="12.4188472"><ele>195.0</ele><time>2026-04-25T16:18:49.604Z</time></trkpt><trkpt lat="43.0806486" lon="12.4189615"><ele>195.0</ele><time>2026-04-25T16:18:50.604Z</time></trkpt><trkpt lat="43.0806862" lon="12.4190579"><ele>195.0</ele><time>2026-04-25T16:18:51.604Z</time></trkpt><trkpt lat="43.0807254" lon="12.4191275"><ele>195.0</ele><time>2026-04-25T16:18:52.604Z</time></trkpt><trkpt lat="43.0808326" lon="12.4191742"><ele>195.2</ele><time>2026-04-25T16:18:54.605Z</time></trkpt><trkpt lat="43.0808978" lon="12.4191102"><ele>195.4</ele><time>2026-04-25T16:18:55.606Z</time></trkpt><trkpt lat="43.0809696" lon="12.4190388"><ele>195.60000000000002</ele><time>2026-04-25T16:18:56.605Z</time></trkpt><trkpt lat="43.081054" lon="12.4189476"><ele>195.8</ele><time>2026-04-25T16:18:57.604Z</time></trkpt><trkpt lat="43.0811532" lon="12.4188387"><ele>196.0</ele><time>2026-04-25T16:18:58.604Z</time></trkpt><trkpt lat="43.0812545" lon="12.4187263"><ele>196.0</ele><time>2026-04-25T16:18:59.604Z</time></trkpt><trkpt lat="43.0813664" lon="12.4186045"><ele>196.0</ele><time>2026-04-25T16:19:00.604Z</time></trkpt><trkpt lat="43.0814864" lon="12.4184661"><ele>196.0</ele><time>2026-04-25T16:19:01.605Z</time></trkpt><trkpt lat="43.0816094" lon="12.4183307"><ele>197.0</ele><time>2026-04-25T16:19:02.606Z</time></trkpt><trkpt lat="43.0817322" lon="12.4181953"><ele>198.0</ele><time>2026-04-25T16:19:03.606Z</time></trkpt><trkpt lat="43.0818551" lon="12.4180533"><ele>199.0</ele><time>2026-04-25T16:19:04.607Z</time></trkpt><trkpt lat="43.081981" lon="12.41791"><ele>199.33333333333331</ele><time>2026-04-25T16:19:05.606Z</time></trkpt><trkpt lat="43.0821065" lon="12.4177604"><ele>199.66666666666669</ele><time>2026-04-25T16:19:06.605Z</time></trkpt><trkpt lat="43.0822316" lon="12.4176066"><ele>200.0</ele><time>2026-04-25T16:19:07.605Z</time></trkpt><trkpt lat="43.0823535" lon="12.4174529"><ele>200.25</ele><time>2026-04-25T16:19:08.605Z</time></trkpt><trkpt lat="43.0824685" lon="12.4173074"><ele>200.5</ele><time>2026-04-25T16:19:09.605Z</time></trkpt><trkpt lat="43.0825755" lon="12.4171741"><ele>200.75</ele><time>2026-04-25T16:19:10.605Z</time></trkpt><trkpt lat="43.0826767" lon="12.4170488"><ele>201.0</ele><time>2026-04-25T16:19:11.604Z</time></trkpt><trkpt lat="43.0827705" lon="12.4169258"><ele>201.5</ele><time>2026-04-25T16:19:12.606Z</time></trkpt><trkpt lat="43.0828635" lon="12.4168097"><ele>202.0</ele><time>2026-04-25T16:19:13.606Z</time></trkpt><trkpt lat="43.0829621" lon="12.416698"><ele>202.5</ele><time>2026-04-25T16:19:14.604Z</time></trkpt><trkpt lat="43.083067" lon="12.416594"><ele>203.0</ele><time>2026-04-25T16:19:15.604Z</time></trkpt><trkpt lat="43.0831797" lon="12.4165004"><ele>202.60000000000002</ele><time>2026-04-25T16:19:16.605Z</time></trkpt><trkpt lat="43.0832888" lon="12.4164131"><ele>202.20000000000002</ele><time>2026-04-25T16:19:17.605Z</time></trkpt><trkpt lat="43.0833845" lon="12.4163393"><ele>201.8</ele><time>2026-04-25T16:19:18.605Z</time></trkpt><trkpt lat="43.0834751" lon="12.4162775"><ele>201.4</ele><time>2026-04-25T16:19:19.604Z</time></trkpt><trkpt lat="43.0835626" lon="12.4162201"><ele>201.0</ele><time>2026-04-25T16:19:20.605Z</time></trkpt><trkpt lat="43.0836405" lon="12.4161664"><ele>201.8</ele><time>2026-04-25T16:19:21.604Z</time></trkpt><trkpt lat="43.0837128" lon="12.4161281"><ele>202.60000000000002</ele><time>2026-04-25T16:19:22.606Z</time></trkpt><trkpt lat="43.0838386" lon="12.4160547"><ele>203.4</ele><time>2026-04-25T16:19:24.605Z</time></trkpt><trkpt lat="43.0839009" lon="12.4160058"><ele>204.2</ele><time>2026-04-25T16:19:25.605Z</time></trkpt><trkpt lat="43.0839851" lon="12.4159575"><ele>205.0</ele><time>2026-04-25T16:19:26.606Z</time></trkpt><trkpt lat="43.084074" lon="12.4159106"><ele>205.33333333333331</ele><time>2026-04-25T16:19:27.606Z</time></trkpt><trkpt lat="43.0841564" lon="12.415871"><ele>205.66666666666666</ele><time>2026-04-25T16:19:28.606Z</time></trkpt><trkpt lat="43.0842333" lon="12.4158353"><ele>206.0</ele><time>2026-04-25T16:19:29.605Z</time></trkpt><trkpt lat="43.0843116" lon="12.4158112"><ele>206.33333333333331</ele><time>2026-04-25T16:19:30.605Z</time></trkpt><trkpt lat="43.0843886" lon="12.4157994"><ele>206.66666666666666</ele><time>2026-04-25T16:19:31.605Z</time></trkpt><trkpt lat="43.0844699" lon="12.4157908"><ele>207.0</ele><time>2026-04-25T16:19:32.604Z</time></trkpt><trkpt lat="43.0845596" lon="12.4157845"><ele>207.0</ele><time>2026-04-25T16:19:33.605Z</time></trkpt><trkpt lat="43.0846473" lon="12.4157646"><ele>207.0</ele><time>2026-04-25T16:19:34.606Z</time></trkpt><trkpt lat="43.0847323" lon="12.4157319"><ele>207.0</ele><time>2026-04-25T16:19:35.604Z</time></trkpt><trkpt lat="43.0848229" lon="12.4156947"><ele>207.0</ele><time>2026-04-25T16:19:36.603Z</time></trkpt><trkpt lat="43.0849013" lon="12.415651"><ele>207.0</ele><time>2026-04-25T16:19:37.605Z</time></trkpt><trkpt lat="43.084978" lon="12.4156087"><ele>207.0</ele><time>2026-04-25T16:19:38.605Z</time></trkpt><trkpt lat="43.0850561" lon="12.4155577"><ele>207.57142857142858</ele><time>2026-04-25T16:19:39.605Z</time></trkpt><trkpt lat="43.0851256" lon="12.4154953"><ele>208.14285714285714</ele><time>2026-04-25T16:19:40.605Z</time></trkpt><trkpt lat="43.085188" lon="12.4154378"><ele>208.71428571428572</ele><time>2026-04-25T16:19:41.605Z</time></trkpt><trkpt lat="43.0852429" lon="12.4153929"><ele>209.28571428571428</ele><time>2026-04-25T16:19:42.604Z</time></trkpt><trkpt lat="43.0853026" lon="12.415353"><ele>209.85714285714286</ele><time>2026-04-25T16:19:43.605Z</time></trkpt><trkpt lat="43.085371" lon="12.4153264"><ele>210.42857142857144</ele><time>2026-04-25T16:19:44.605Z</time></trkpt><trkpt lat="43.0854521" lon="12.4153016"><ele>211.0</ele><time>2026-04-25T16:19:45.605Z</time></trkpt><trkpt lat="43.0855387" lon="12.4152863"><ele>211.33333333333331</ele><time>2026-04-25T16:19:46.606Z</time></trkpt><trkpt lat="43.0856239" lon="12.4152816"><ele>211.66666666666666</ele><time>2026-04-25T16:19:47.604Z</time></trkpt><trkpt lat="43.0857074" lon="12.4152783"><ele>212.0</ele><time>2026-04-25T16:19:48.604Z</time></trkpt><trkpt lat="43.0857861" lon="12.4152674"><ele>212.33333333333331</ele><time>2026-04-25T16:19:49.605Z</time></trkpt><trkpt lat="43.0858622" lon="12.4152478"><ele>212.66666666666666</ele><time>2026-04-25T16:19:50.605Z</time></trkpt><trkpt lat="43.0859438" lon="12.4152166"><ele>213.0</ele><time>2026-04-25T16:19:51.605Z</time></trkpt><trkpt lat="43.08603" lon="12.4151817"><ele>213.0</ele><time>2026-04-25T16:19:52.604Z</time></trkpt><trkpt lat="43.0861133" lon="12.4151292"><ele>213.0</ele><time>2026-04-25T16:19:53.605Z</time></trkpt><trkpt lat="43.0861901" lon="12.4150783"><ele>213.0</ele><time>2026-04-25T16:19:54.605Z</time></trkpt><trkpt lat="43.08627" lon="12.4150332"><ele>213.0</ele><time>2026-04-25T16:19:55.605Z</time></trkpt><trkpt lat="43.0863494" lon="12.4149883"><ele>213.0</ele><time>2026-04-25T16:19:56.606Z</time></trkpt><trkpt lat="43.0864169" lon="12.4149294"><ele>213.0</ele><time>2026-04-25T16:19:57.604Z</time></trkpt><trkpt lat="43.0864852" lon="12.4148539"><ele>213.0</ele><time>2026-04-25T16:19:58.604Z</time></trkpt><trkpt lat="43.0865384" lon="12.4147458"><ele>213.0</ele><time>2026-04-25T16:19:59.605Z</time></trkpt><trkpt lat="43.0865958" lon="12.4146486"><ele>213.0</ele><time>2026-04-25T16:20:00.604Z</time></trkpt><trkpt lat="43.086651" lon="12.4145599"><ele>213.0</ele><time>2026-04-25T16:20:01.604Z</time></trkpt><trkpt lat="43.0867098" lon="12.4144635"><ele>213.0</ele><time>2026-04-25T16:20:02.605Z</time></trkpt><trkpt lat="43.0867725" lon="12.4143789"><ele>213.66666666666666</ele><time>2026-04-25T16:20:03.605Z</time></trkpt><trkpt lat="43.0868356" lon="12.4142886"><ele>214.33333333333331</ele><time>2026-04-25T16:20:04.604Z</time></trkpt><trkpt lat="43.0868983" lon="12.4141959"><ele>215.0</ele><time>2026-04-25T16:20:05.604Z</time></trkpt><trkpt lat="43.0869573" lon="12.4141043"><ele>215.66666666666666</ele><time>2026-04-25T16:20:06.604Z</time></trkpt><trkpt lat="43.0870151" lon="12.414009"><ele>216.33333333333331</ele><time>2026-04-25T16:20:07.605Z</time></trkpt><trkpt lat="43.0870656" lon="12.4139158"><ele>217.0</ele><time>2026-04-25T16:20:08.604Z</time></trkpt><trkpt lat="43.0871143" lon="12.4138118"><ele>217.33333333333331</ele><time>2026-04-25T16:20:09.605Z</time></trkpt><trkpt lat="43.0871617" lon="12.4137125"><ele>217.66666666666666</ele><time>2026-04-25T16:20:10.606Z</time></trkpt><trkpt lat="43.0872101" lon="12.413614"><ele>218.0</ele><time>2026-04-25T16:20:11.605Z</time></trkpt><trkpt lat="43.0872643" lon="12.4135226"><ele>218.33333333333331</ele><time>2026-04-25T16:20:12.604Z</time></trkpt><trkpt lat="43.0873227" lon="12.4134377"><ele>218.66666666666666</ele><time>2026-04-25T16:20:13.604Z</time></trkpt><trkpt lat="43.0873812" lon="12.4133509"><ele>219.0</ele><time>2026-04-25T16:20:14.606Z</time></trkpt><trkpt lat="43.0874426" lon="12.4132729"><ele>219.0</ele><time>2026-04-25T16:20:15.604Z</time></trkpt><trkpt lat="43.0875016" lon="12.4131874"><ele>218.99999999999997</ele><time>2026-04-25T16:20:16.605Z</time></trkpt><trkpt lat="43.0875637" lon="12.4130967"><ele>218.99999999999997</ele><time>2026-04-25T16:20:17.604Z</time></trkpt><trkpt lat="43.0876223" lon="12.4129844"><ele>219.0</ele><time>2026-04-25T16:20:18.604Z</time></trkpt><trkpt lat="43.0876768" lon="12.4128684"><ele>219.0</ele><time>2026-04-25T16:20:19.606Z</time></trkpt><trkpt lat="43.0877214" lon="12.4127506"><ele>219.39999999999998</ele><time>2026-04-25T16:20:20.605Z</time></trkpt><trkpt lat="43.0877579" lon="12.4126304"><ele>219.79999999999998</ele><time>2026-04-25T16:20:21.604Z</time></trkpt><trkpt lat="43.0877898" lon="12.412512"><ele>220.20000000000002</ele><time>2026-04-25T16:20:22.606Z</time></trkpt><trkpt lat="43.0878139" lon="12.4123919"><ele>220.60000000000002</ele><time>2026-04-25T16:20:23.604Z</time></trkpt><trkpt lat="43.087844" lon="12.4122586"><ele>221.0</ele><time>2026-04-25T16:20:24.604Z</time></trkpt><trkpt lat="43.087877" lon="12.4121311"><ele>222.0</ele><time>2026-04-25T16:20:25.604Z</time></trkpt><trkpt lat="43.0879176" lon="12.4119984"><ele>223.00000000000003</ele><time>2026-04-25T16:20:26.606Z</time></trkpt><trkpt lat="43.0879576" lon="12.4118675"><ele>224.00000000000003</ele><time>2026-04-25T16:20:27.604Z</time></trkpt><trkpt lat="43.0879971" lon="12.4117405"><ele>225.0</ele><time>2026-04-25T16:20:28.604Z</time></trkpt><trkpt lat="43.0880502" lon="12.411579"><ele>226.0</ele><time>2026-04-25T16:20:29.604Z</time></trkpt><trkpt lat="43.0880971" lon="12.411441"><ele>227.0</ele><time>2026-04-25T16:20:30.605Z</time></trkpt><trkpt lat="43.0881464" lon="12.4112987"><ele>228.00000000000003</ele><time>2026-04-25T16:20:31.605Z</time></trkpt><trkpt lat="43.088189" lon="12.4111768"><ele>229.00000000000003</ele><time>2026-04-25T16:20:32.605Z</time></trkpt><trkpt lat="43.088233" lon="12.411057"><ele>230.0</ele><time>2026-04-25T16:20:33.605Z</time></trkpt><trkpt lat="43.0882795" lon="12.4109333"><ele>231.0</ele><time>2026-04-25T16:20:34.606Z</time></trkpt><trkpt lat="43.0883283" lon="12.4108098"><ele>231.0</ele><time>2026-04-25T16:20:35.604Z</time></trkpt><trkpt lat="43.0883826" lon="12.4106832"><ele>231.00000000000003</ele><time>2026-04-25T16:20:36.604Z</time></trkpt><trkpt lat="43.0884376" lon="12.4105563"><ele>231.00000000000003</ele><time>2026-04-25T16:20:37.603Z</time></trkpt><trkpt lat="43.0885001" lon="12.4104283"><ele>231.0</ele><time>2026-04-25T16:20:38.605Z</time></trkpt><trkpt lat="43.088566" lon="12.4103122"><ele>231.0</ele><time>2026-04-25T16:20:39.604Z</time></trkpt><trkpt lat="43.0886359" lon="12.4101943"><ele>232.0</ele><time>2026-04-25T16:20:40.605Z</time></trkpt><trkpt lat="43.0887009" lon="12.4100749"><ele>233.00000000000003</ele><time>2026-04-25T16:20:41.604Z</time></trkpt><trkpt lat="43.0887679" lon="12.4099502"><ele>234.00000000000003</ele><time>2026-04-25T16:20:42.605Z</time></trkpt><trkpt lat="43.0888334" lon="12.4098325"><ele>235.0</ele><time>2026-04-25T16:20:43.605Z</time></trkpt><trkpt lat="43.0888987" lon="12.4097182"><ele>236.0</ele><time>2026-04-25T16:20:44.605Z</time></trkpt><trkpt lat="43.0889592" lon="12.4096009"><ele>236.83333333333334</ele><time>2026-04-25T16:20:45.605Z</time></trkpt><trkpt lat="43.0890192" lon="12.4094872"><ele>237.66666666666669</ele><time>2026-04-25T16:20:46.605Z</time></trkpt><trkpt lat="43.0890632" lon="12.4093859"><ele>238.5</ele><time>2026-04-25T16:20:47.605Z</time></trkpt><trkpt lat="43.0890963" lon="12.4092882"><ele>239.33333333333331</ele><time>2026-04-25T16:20:48.604Z</time></trkpt><trkpt lat="43.0891115" lon="12.4091672"><ele>240.16666666666666</ele><time>2026-04-25T16:20:49.605Z</time></trkpt><trkpt lat="43.0891322" lon="12.4090528"><ele>241.0</ele><time>2026-04-25T16:20:50.604Z</time></trkpt><trkpt lat="43.0891516" lon="12.4089259"><ele>243.0</ele><time>2026-04-25T16:20:51.606Z</time></trkpt><trkpt lat="43.0891868" lon="12.4088018"><ele>245.00000000000003</ele><time>2026-04-25T16:20:52.604Z</time></trkpt><trkpt lat="43.089233" lon="12.4086844"><ele>247.00000000000003</ele><time>2026-04-25T16:20:53.604Z</time></trkpt><trkpt lat="43.08929" lon="12.4085655"><ele>249.0</ele><time>2026-04-25T16:20:54.604Z</time></trkpt><trkpt lat="43.089356" lon="12.4084598"><ele>251.0</ele><time>2026-04-25T16:20:55.604Z</time></trkpt><trkpt lat="43.0894268" lon="12.4083598"><ele>251.0</ele><time>2026-04-25T16:20:56.604Z</time></trkpt><trkpt lat="43.0895014" lon="12.4082629"><ele>251.00000000000003</ele><time>2026-04-25T16:20:57.605Z</time></trkpt><trkpt lat="43.0895732" lon="12.4081566"><ele>251.00000000000003</ele><time>2026-04-25T16:20:58.605Z</time></trkpt><trkpt lat="43.0896405" lon="12.4080457"><ele>251.0</ele><time>2026-04-25T16:20:59.604Z</time></trkpt><trkpt lat="43.0896996" lon="12.4079286"><ele>251.0</ele><time>2026-04-25T16:21:00.605Z</time></trkpt><trkpt lat="43.089754" lon="12.4078038"><ele>252.0</ele><time>2026-04-25T16:21:01.604Z</time></trkpt><trkpt lat="43.0898069" lon="12.4076896"><ele>253.00000000000003</ele><time>2026-04-25T16:21:02.605Z</time></trkpt><trkpt lat="43.0898689" lon="12.407582"><ele>254.00000000000003</ele><time>2026-04-25T16:21:03.605Z</time></trkpt><trkpt lat="43.0899305" lon="12.4074921"><ele>255.0</ele><time>2026-04-25T16:21:04.605Z</time></trkpt><trkpt lat="43.0900052" lon="12.4074114"><ele>256.0</ele><time>2026-04-25T16:21:05.604Z</time></trkpt><trkpt lat="43.0900902" lon="12.4073391"><ele>258.5</ele><time>2026-04-25T16:21:06.604Z</time></trkpt><trkpt lat="43.0901879" lon="12.4072758"><ele>261.0</ele><time>2026-04-25T16:21:07.604Z</time></trkpt><trkpt lat="43.0902946" lon="12.4072074"><ele>263.5</ele><time>2026-04-25T16:21:08.604Z</time></trkpt><trkpt lat="43.0904119" lon="12.4071438"><ele>266.0</ele><time>2026-04-25T16:21:09.605Z</time></trkpt><trkpt lat="43.0905343" lon="12.4070775"><ele>267.25</ele><time>2026-04-25T16:21:10.604Z</time></trkpt><trkpt lat="43.0906477" lon="12.4069828"><ele>268.5</ele><time>2026-04-25T16:21:11.605Z</time></trkpt><trkpt lat="43.0907519" lon="12.4068907"><ele>269.75</ele><time>2026-04-25T16:21:12.604Z</time></trkpt><trkpt lat="43.0908204" lon="12.406781"><ele>271.0</ele><time>2026-04-25T16:21:13.605Z</time></trkpt><trkpt lat="43.0908699" lon="12.4066772"><ele>273.6</ele><time>2026-04-25T16:21:14.604Z</time></trkpt><trkpt lat="43.0908941" lon="12.4065579"><ele>276.20000000000005</ele><time>2026-04-25T16:21:15.605Z</time></trkpt><trkpt lat="43.0909139" lon="12.4064286"><ele>278.79999999999995</ele><time>2026-04-25T16:21:16.606Z</time></trkpt><trkpt lat="43.0909385" lon="12.4063055"><ele>281.4</ele><time>2026-04-25T16:21:17.606Z</time></trkpt><trkpt lat="43.0909693" lon="12.4061867"><ele>284.0</ele><time>2026-04-25T16:21:18.605Z</time></trkpt><trkpt lat="43.091011" lon="12.4060696"><ele>286.0</ele><time>2026-04-25T16:21:19.604Z</time></trkpt><trkpt lat="43.0910716" lon="12.4059645"><ele>288.0</ele><time>2026-04-25T16:21:20.604Z</time></trkpt><trkpt lat="43.0911316" lon="12.4058585"><ele>290.0</ele><time>2026-04-25T16:21:21.604Z</time></trkpt><trkpt lat="43.0912068" lon="12.4057552"><ele>292.0</ele><time>2026-04-25T16:21:22.604Z</time></trkpt><trkpt lat="43.0912817" lon="12.4056492"><ele>294.0</ele><time>2026-04-25T16:21:23.605Z</time></trkpt><trkpt lat="43.0913615" lon="12.4055457"><ele>296.5</ele><time>2026-04-25T16:21:24.604Z</time></trkpt><trkpt lat="43.0914334" lon="12.4054265"><ele>299.0</ele><time>2026-04-25T16:21:25.605Z</time></trkpt><trkpt lat="43.0915109" lon="12.4053089"><ele>301.5</ele><time>2026-04-25T16:21:26.606Z</time></trkpt><trkpt lat="43.0915845" lon="12.4051894"><ele>304.0</ele><time>2026-04-25T16:21:27.606Z</time></trkpt><trkpt lat="43.0916458" lon="12.4050597"><ele>305.8</ele><time>2026-04-25T16:21:28.605Z</time></trkpt><trkpt lat="43.0917018" lon="12.404927"><ele>307.59999999999997</ele><time>2026-04-25T16:21:29.605Z</time></trkpt><trkpt lat="43.0917272" lon="12.4047962"><ele>309.4</ele><time>2026-04-25T16:21:30.604Z</time></trkpt><trkpt lat="43.0917605" lon="12.4046632"><ele>311.2</ele><time>2026-04-25T16:21:31.604Z</time></trkpt><trkpt lat="43.091796" lon="12.4045314"><ele>313.0</ele><time>2026-04-25T16:21:32.605Z</time></trkpt><trkpt lat="43.0918314" lon="12.4043965"><ele>315.5</ele><time>2026-04-25T16:21:33.605Z</time></trkpt><trkpt lat="43.0918593" lon="12.404259"><ele>318.0</ele><time>2026-04-25T16:21:34.605Z</time></trkpt><trkpt lat="43.0918894" lon="12.4041506"><ele>320.5</ele><time>2026-04-25T16:21:35.606Z</time></trkpt><trkpt lat="43.091905" lon="12.4040417"><ele>323.0</ele><time>2026-04-25T16:21:36.604Z</time></trkpt><trkpt lat="43.0918782" lon="12.4039319"><ele>325.5</ele><time>2026-04-25T16:21:37.604Z</time></trkpt><trkpt lat="43.0918742" lon="12.4038344"><ele>328.0</ele><time>2026-04-25T16:21:38.604Z</time></trkpt><trkpt lat="43.0918802" lon="12.4037146"><ele>329.5</ele><time>2026-04-25T16:21:39.604Z</time></trkpt><trkpt lat="43.0919043" lon="12.4036092"><ele>331.0</ele><time>2026-04-25T16:21:40.606Z</time></trkpt><trkpt lat="43.0919321" lon="12.403505"><ele>332.5</ele><time>2026-04-25T16:21:41.605Z</time></trkpt><trkpt lat="43.0919834" lon="12.4034012"><ele>334.0</ele><time>2026-04-25T16:21:42.604Z</time></trkpt><trkpt lat="43.0920379" lon="12.4033049"><ele>335.5</ele><time>2026-04-25T16:21:43.604Z</time></trkpt><trkpt lat="43.0920987" lon="12.4032209"><ele>337.0</ele><time>2026-04-25T16:21:44.605Z</time></trkpt><trkpt lat="43.0921555" lon="12.4031606"><ele>337.0</ele><time>2026-04-25T16:21:45.604Z</time></trkpt><trkpt lat="43.0922356" lon="12.4031086"><ele>337.0</ele><time>2026-04-25T16:21:46.605Z</time></trkpt><trkpt lat="43.0923221" lon="12.403058"><ele>337.0</ele><time>2026-04-25T16:21:47.605Z</time></trkpt><trkpt lat="43.0923998" lon="12.4029787"><ele>337.0</ele><time>2026-04-25T16:21:48.604Z</time></trkpt><trkpt lat="43.0924715" lon="12.4028722"><ele>337.0</ele><time>2026-04-25T16:21:49.604Z</time></trkpt><trkpt lat="43.0925413" lon="12.40277"><ele>338.8</ele><time>2026-04-25T16:21:50.604Z</time></trkpt><trkpt lat="43.0926296" lon="12.4026437"><ele>340.6</ele><time>2026-04-25T16:21:51.605Z</time></trkpt><trkpt lat="43.0926946" lon="12.4025286"><ele>342.40000000000003</ele><time>2026-04-25T16:21:52.604Z</time></trkpt><trkpt lat="43.0927579" lon="12.4024385"><ele>344.20000000000005</ele><time>2026-04-25T16:21:53.604Z</time></trkpt><trkpt lat="43.0928288" lon="12.4023808"><ele>346.0</ele><time>2026-04-25T16:21:54.605Z</time></trkpt><trkpt lat="43.0929061" lon="12.4023503"><ele>346.0</ele><time>2026-04-25T16:21:55.606Z</time></trkpt><trkpt lat="43.0929716" lon="12.4023354"><ele>346.0</ele><time>2026-04-25T16:21:56.605Z</time></trkpt><trkpt lat="43.0930421" lon="12.4022872"><ele>346.0</ele><time>2026-04-25T16:21:58.605Z</time></trkpt><trkpt lat="43.0930167" lon="12.4022062"><ele>346.0</ele><time>2026-04-25T16:22:01.604Z</time></trkpt><trkpt lat="43.0929067" lon="12.4022272"><ele>346.0</ele><time>2026-04-25T16:22:03.605Z</time></trkpt><trkpt lat="43.0928189" lon="12.402262"><ele>346.0</ele><time>2026-04-25T16:22:04.604Z</time></trkpt><trkpt lat="43.0927209" lon="12.4023023"><ele>346.0</ele><time>2026-04-25T16:22:05.604Z</time></trkpt><trkpt lat="43.0926135" lon="12.4023338"><ele>346.0</ele><time>2026-04-25T16:22:06.604Z</time></trkpt><trkpt lat="43.0925167" lon="12.402313"><ele>346.0</ele><time>2026-04-25T16:22:07.603Z</time></trkpt><trkpt lat="43.0924425" lon="12.4022331"><ele>346.0</ele><time>2026-04-25T16:22:08.604Z</time></trkpt><trkpt lat="43.0924229" lon="12.4021106"><ele>346.0</ele><time>2026-04-25T16:22:09.604Z</time></trkpt><trkpt lat="43.0924409" lon="12.4019739"><ele>347.75</ele><time>2026-04-25T16:22:10.604Z</time></trkpt><trkpt lat="43.0924746" lon="12.4018273"><ele>349.5</ele><time>2026-04-25T16:22:11.605Z</time></trkpt><trkpt lat="43.0924972" lon="12.4016586"><ele>351.25</ele><time>2026-04-25T16:22:12.604Z</time></trkpt><trkpt lat="43.0924989" lon="12.4014733"><ele>353.0</ele><time>2026-04-25T16:22:13.604Z</time></trkpt><trkpt lat="43.0924715" lon="12.4012896"><ele>354.25</ele><time>2026-04-25T16:22:14.604Z</time></trkpt><trkpt lat="43.0924037" lon="12.4011268"><ele>355.5</ele><time>2026-04-25T16:22:15.604Z</time></trkpt><trkpt lat="43.0923151" lon="12.4009876"><ele>356.75</ele><time>2026-04-25T16:22:16.605Z</time></trkpt><trkpt lat="43.0922134" lon="12.4008757"><ele>358.0</ele><time>2026-04-25T16:22:17.604Z</time></trkpt><trkpt lat="43.0921108" lon="12.4007828"><ele>358.0</ele><time>2026-04-25T16:22:18.604Z</time></trkpt><trkpt lat="43.0920296" lon="12.4006854"><ele>358.0</ele><time>2026-04-25T16:22:19.605Z</time></trkpt><trkpt lat="43.0919833" lon="12.4005595"><ele>358.0</ele><time>2026-04-25T16:22:20.604Z</time></trkpt><trkpt lat="43.09198" lon="12.4004412"><ele>358.0</ele><time>2026-04-25T16:22:21.605Z</time></trkpt><trkpt lat="43.092025" lon="12.4003418"><ele>358.0</ele><time>2026-04-25T16:22:22.605Z</time></trkpt><trkpt lat="43.0921086" lon="12.4002945"><ele>363.0</ele><time>2026-04-25T16:22:23.605Z</time></trkpt><trkpt lat="43.0922056" lon="12.4002652"><ele>368.0</ele><time>2026-04-25T16:22:24.604Z</time></trkpt><trkpt lat="43.0923315" lon="12.4002581"><ele>373.0</ele><time>2026-04-25T16:22:25.604Z</time></trkpt><trkpt lat="43.0924654" lon="12.4002997"><ele>378.0</ele><time>2026-04-25T16:22:26.604Z</time></trkpt><trkpt lat="43.0925953" lon="12.4003738"><ele>378.3333333333333</ele><time>2026-04-25T16:22:27.605Z</time></trkpt><trkpt lat="43.0927206" lon="12.4004894"><ele>378.66666666666663</ele><time>2026-04-25T16:22:28.604Z</time></trkpt><trkpt lat="43.0928472" lon="12.40062"><ele>379.0</ele><time>2026-04-25T16:22:29.604Z</time></trkpt><trkpt lat="43.092959" lon="12.4007526"><ele>376.0</ele><time>2026-04-25T16:22:30.605Z</time></trkpt><trkpt lat="43.093051" lon="12.4008619"><ele>373.0</ele><time>2026-04-25T16:22:31.604Z</time></trkpt><trkpt lat="43.093151" lon="12.4009338"><ele>370.0</ele><time>2026-04-25T16:22:32.604Z</time></trkpt><trkpt lat="43.0932616" lon="12.4009436"><ele>367.0</ele><time>2026-04-25T16:22:33.604Z</time></trkpt><trkpt lat="43.093374" lon="12.4008871"><ele>367.0</ele><time>2026-04-25T16:22:34.605Z</time></trkpt><trkpt lat="43.0934965" lon="12.4008172"><ele>367.0</ele><time>2026-04-25T16:22:35.604Z</time></trkpt><trkpt lat="43.0936298" lon="12.4007135"><ele>367.0</ele><time>2026-04-25T16:22:36.605Z</time></trkpt><trkpt lat="43.0937637" lon="12.4006156"><ele>367.0</ele><time>2026-04-25T16:22:37.604Z</time></trkpt><trkpt lat="43.0939105" lon="12.4005139"><ele>369.25</ele><time>2026-04-25T16:22:38.604Z</time></trkpt><trkpt lat="43.0940419" lon="12.4004142"><ele>371.5</ele><time>2026-04-25T16:22:39.604Z</time></trkpt><trkpt lat="43.0941525" lon="12.4003201"><ele>373.75</ele><time>2026-04-25T16:22:40.604Z</time></trkpt><trkpt lat="43.0942613" lon="12.4002196"><ele>376.0</ele><time>2026-04-25T16:22:41.604Z</time></trkpt><trkpt lat="43.0943395" lon="12.4000982"><ele>376.0</ele><time>2026-04-25T16:22:42.605Z</time></trkpt><trkpt lat="43.0944147" lon="12.3999748"><ele>376.0</ele><time>2026-04-25T16:22:43.604Z</time></trkpt><trkpt lat="43.0945026" lon="12.3998387"><ele>376.0</ele><time>2026-04-25T16:22:44.604Z</time></trkpt><trkpt lat="43.0945964" lon="12.3997024"><ele>376.0</ele><time>2026-04-25T16:22:45.604Z</time></trkpt><trkpt lat="43.0946956" lon="12.3995852"><ele>377.25</ele><time>2026-04-25T16:22:46.604Z</time></trkpt><trkpt lat="43.0947937" lon="12.3994797"><ele>378.5</ele><time>2026-04-25T16:22:47.605Z</time></trkpt><trkpt lat="43.0949009" lon="12.3993846"><ele>379.75</ele><time>2026-04-25T16:22:48.605Z</time></trkpt><trkpt lat="43.0950129" lon="12.3992816"><ele>381.0</ele><time>2026-04-25T16:22:49.604Z</time></trkpt><trkpt lat="43.0951468" lon="12.3991717"><ele>381.0</ele><time>2026-04-25T16:22:50.605Z</time></trkpt><trkpt lat="43.0952578" lon="12.3990778"><ele>381.0</ele><time>2026-04-25T16:22:51.605Z</time></trkpt><trkpt lat="43.0953584" lon="12.3989973"><ele>381.0</ele><time>2026-04-25T16:22:52.604Z</time></trkpt><trkpt lat="43.0954534" lon="12.3989238"><ele>381.0</ele><time>2026-04-25T16:22:53.605Z</time></trkpt><trkpt lat="43.0955412" lon="12.3988514"><ele>381.3333333333333</ele><time>2026-04-25T16:22:54.604Z</time></trkpt><trkpt lat="43.0956168" lon="12.3987882"><ele>381.6666666666667</ele><time>2026-04-25T16:22:55.604Z</time></trkpt><trkpt lat="43.0956864" lon="12.3987352"><ele>382.0</ele><time>2026-04-25T16:22:56.604Z</time></trkpt><trkpt lat="43.0957442" lon="12.3986896"><ele>382.33333333333337</ele><time>2026-04-25T16:22:57.605Z</time></trkpt><trkpt lat="43.0958096" lon="12.3986312"><ele>382.6666666666667</ele><time>2026-04-25T16:22:59.604Z</time></trkpt><trkpt lat="43.0958815" lon="12.398569"><ele>383.0</ele><time>2026-04-25T16:23:03.604Z</time></trkpt><trkpt lat="43.0959541" lon="12.3985194"><ele>383.5</ele><time>2026-04-25T16:23:05.605Z</time></trkpt><trkpt lat="43.096045" lon="12.3984615"><ele>384.0</ele><time>2026-04-25T16:23:07.604Z</time></trkpt><trkpt lat="43.0961291" lon="12.3983791"><ele>384.5</ele><time>2026-04-25T16:23:09.605Z</time></trkpt><trkpt lat="43.0961651" lon="12.3983037"><ele>385.0</ele><time>2026-04-25T16:23:10.604Z</time></trkpt><trkpt lat="43.0961827" lon="12.3982191"><ele>385.49999999999994</ele><time>2026-04-25T16:23:11.605Z</time></trkpt><trkpt lat="43.0961794" lon="12.3981229"><ele>386.0</ele><time>2026-04-25T16:23:12.605Z</time></trkpt><trkpt lat="43.0961703" lon="12.3980103"><ele>385.8</ele><time>2026-04-25T16:23:13.605Z</time></trkpt><trkpt lat="43.0961576" lon="12.3978798"><ele>385.6</ele><time>2026-04-25T16:23:14.604Z</time></trkpt><trkpt lat="43.0961397" lon="12.3977413"><ele>385.4</ele><time>2026-04-25T16:23:15.604Z</time></trkpt><trkpt lat="43.0961253" lon="12.3976124"><ele>385.2</ele><time>2026-04-25T16:23:16.605Z</time></trkpt><trkpt lat="43.0961099" lon="12.3974971"><ele>385.0</ele><time>2026-04-25T16:23:17.604Z</time></trkpt><trkpt lat="43.0960971" lon="12.3973982"><ele>385.00000000000006</ele><time>2026-04-25T16:23:18.604Z</time></trkpt><trkpt lat="43.0960867" lon="12.397302"><ele>385.0</ele><time>2026-04-25T16:23:19.604Z</time></trkpt><trkpt lat="43.0960739" lon="12.3971996"><ele>385.0</ele><time>2026-04-25T16:23:20.603Z</time></trkpt><trkpt lat="43.0960636" lon="12.3970767"><ele>385.0</ele><time>2026-04-25T16:23:21.605Z</time></trkpt><trkpt lat="43.0960513" lon="12.396945"><ele>385.00000000000006</ele><time>2026-04-25T16:23:22.603Z</time></trkpt><trkpt lat="43.0960412" lon="12.3968052"><ele>385.0</ele><time>2026-04-25T16:23:23.604Z</time></trkpt><trkpt lat="43.0960253" lon="12.3966481"><ele>384.0</ele><time>2026-04-25T16:23:24.603Z</time></trkpt><trkpt lat="43.096007" lon="12.3964791"><ele>383.0</ele><time>2026-04-25T16:23:25.604Z</time></trkpt><trkpt lat="43.095988" lon="12.3963029"><ele>382.0</ele><time>2026-04-25T16:23:26.604Z</time></trkpt><trkpt lat="43.095969" lon="12.3961166"><ele>381.0</ele><time>2026-04-25T16:23:27.605Z</time></trkpt><trkpt lat="43.0959555" lon="12.3959223"><ele>380.5</ele><time>2026-04-25T16:23:28.604Z</time></trkpt><trkpt lat="43.0959357" lon="12.3957366"><ele>380.0</ele><time>2026-04-25T16:23:29.605Z</time></trkpt><trkpt lat="43.0959339" lon="12.3955379"><ele>379.5</ele><time>2026-04-25T16:23:30.605Z</time></trkpt><trkpt lat="43.0959312" lon="12.3953462"><ele>379.0</ele><time>2026-04-25T16:23:31.604Z</time></trkpt><trkpt lat="43.0959305" lon="12.3951592"><ele>378.0</ele><time>2026-04-25T16:23:32.605Z</time></trkpt><trkpt lat="43.09593" lon="12.3949735"><ele>377.0</ele><time>2026-04-25T16:23:33.604Z</time></trkpt><trkpt lat="43.0959305" lon="12.3948017"><ele>376.0</ele><time>2026-04-25T16:23:34.605Z</time></trkpt><trkpt lat="43.0959278" lon="12.3946617"><ele>375.0</ele><time>2026-04-25T16:23:35.605Z</time></trkpt><trkpt lat="43.0959305" lon="12.3945212"><ele>374.1666666666667</ele><time>2026-04-25T16:23:36.604Z</time></trkpt><trkpt lat="43.0959312" lon="12.3943838"><ele>373.3333333333333</ele><time>2026-04-25T16:23:37.604Z</time></trkpt><trkpt lat="43.0959319" lon="12.3942537"><ele>372.5</ele><time>2026-04-25T16:23:38.604Z</time></trkpt><trkpt lat="43.0959325" lon="12.3941388"><ele>371.66666666666663</ele><time>2026-04-25T16:23:39.604Z</time></trkpt><trkpt lat="43.0959383" lon="12.3940294"><ele>370.8333333333333</ele><time>2026-04-25T16:23:40.605Z</time></trkpt><trkpt lat="43.0959473" lon="12.3939214"><ele>370.0</ele><time>2026-04-25T16:23:41.604Z</time></trkpt><trkpt lat="43.0959556" lon="12.393807"><ele>369.57142857142856</ele><time>2026-04-25T16:23:42.605Z</time></trkpt><trkpt lat="43.0959608" lon="12.3936954"><ele>369.1428571428571</ele><time>2026-04-25T16:23:43.603Z</time></trkpt><trkpt lat="43.0959641" lon="12.3935966"><ele>368.71428571428567</ele><time>2026-04-25T16:23:44.604Z</time></trkpt><trkpt lat="43.0959673" lon="12.3935038"><ele>368.2857142857143</ele><time>2026-04-25T16:23:45.605Z</time></trkpt><trkpt lat="43.0959674" lon="12.3934066"><ele>367.8571428571429</ele><time>2026-04-25T16:23:46.605Z</time></trkpt><trkpt lat="43.0959618" lon="12.393309"><ele>367.4285714285714</ele><time>2026-04-25T16:23:47.604Z</time></trkpt><trkpt lat="43.0959518" lon="12.3932141"><ele>367.0</ele><time>2026-04-25T16:23:48.605Z</time></trkpt><trkpt lat="43.095951" lon="12.3931263"><ele>365.8</ele><time>2026-04-25T16:23:49.603Z</time></trkpt><trkpt lat="43.0959392" lon="12.3929758"><ele>364.6</ele><time>2026-04-25T16:23:51.604Z</time></trkpt><trkpt lat="43.0959358" lon="12.3928893"><ele>363.40000000000003</ele><time>2026-04-25T16:23:53.605Z</time></trkpt><trkpt lat="43.0959251" lon="12.3927986"><ele>362.20000000000005</ele><time>2026-04-25T16:23:55.604Z</time></trkpt><trkpt lat="43.0959179" lon="12.3926217"><ele>361.0</ele><time>2026-04-25T16:23:58.605Z</time></trkpt><trkpt lat="43.0959264" lon="12.3923814"><ele>361.0</ele><time>2026-04-25T16:24:29.604Z</time></trkpt><trkpt lat="43.0959291" lon="12.3922163"><ele>361.0</ele><time>2026-04-25T16:24:30.604Z</time></trkpt><trkpt lat="43.0959299" lon="12.3920139"><ele>361.0</ele><time>2026-04-25T16:24:31.604Z</time></trkpt><trkpt lat="43.0959237" lon="12.3918087"><ele>361.0</ele><time>2026-04-25T16:24:32.604Z</time></trkpt><trkpt lat="43.0959106" lon="12.3915958"><ele>359.66666666666663</ele><time>2026-04-25T16:24:33.605Z</time></trkpt><trkpt lat="43.0959027" lon="12.3913819"><ele>358.3333333333333</ele><time>2026-04-25T16:24:34.604Z</time></trkpt><trkpt lat="43.0959033" lon="12.3911644"><ele>357.0</ele><time>2026-04-25T16:24:35.604Z</time></trkpt><trkpt lat="43.0959147" lon="12.3909438"><ele>357.0</ele><time>2026-04-25T16:24:36.603Z</time></trkpt><trkpt lat="43.095929" lon="12.3907228"><ele>357.0</ele><time>2026-04-25T16:24:37.604Z</time></trkpt><trkpt lat="43.0959481" lon="12.3905039"><ele>357.0</ele><time>2026-04-25T16:24:38.604Z</time></trkpt><trkpt lat="43.0959668" lon="12.3902826"><ele>355.3333333333333</ele><time>2026-04-25T16:24:39.603Z</time></trkpt><trkpt lat="43.0959847" lon="12.3900684"><ele>353.66666666666663</ele><time>2026-04-25T16:24:40.604Z</time></trkpt><trkpt lat="43.0960011" lon="12.3898607"><ele>352.0</ele><time>2026-04-25T16:24:41.603Z</time></trkpt><trkpt lat="43.0960184" lon="12.3896531"><ele>351.0</ele><time>2026-04-25T16:24:42.604Z</time></trkpt><trkpt lat="43.096039" lon="12.3894554"><ele>350.0</ele><time>2026-04-25T16:24:43.604Z</time></trkpt><trkpt lat="43.0960701" lon="12.3892761"><ele>349.0</ele><time>2026-04-25T16:24:44.604Z</time></trkpt><trkpt lat="43.0961122" lon="12.3891076"><ele>348.0</ele><time>2026-04-25T16:24:45.604Z</time></trkpt><trkpt lat="43.0962004" lon="12.3889949"><ele>348.0</ele><time>2026-04-25T16:24:46.603Z</time></trkpt><trkpt lat="43.0962958" lon="12.3888998"><ele>348.0</ele><time>2026-04-25T16:24:47.604Z</time></trkpt><trkpt lat="43.0964166" lon="12.3888297"><ele>348.0</ele><time>2026-04-25T16:24:48.604Z</time></trkpt><trkpt lat="43.0965407" lon="12.388767"><ele>348.0</ele><time>2026-04-25T16:24:49.604Z</time></trkpt><trkpt lat="43.0966811" lon="12.3887132"><ele>346.0</ele><time>2026-04-25T16:24:50.605Z</time></trkpt><trkpt lat="43.096844" lon="12.3886903"><ele>344.0</ele><time>2026-04-25T16:24:51.605Z</time></trkpt><trkpt lat="43.0969997" lon="12.388649"><ele>342.0</ele><time>2026-04-25T16:24:52.604Z</time></trkpt><trkpt lat="43.0971549" lon="12.3886173"><ele>342.0</ele><time>2026-04-25T16:24:53.604Z</time></trkpt><trkpt lat="43.0972992" lon="12.388605"><ele>342.0</ele><time>2026-04-25T16:24:54.604Z</time></trkpt><trkpt lat="43.0974448" lon="12.388587"><ele>342.0</ele><time>2026-04-25T16:24:55.604Z</time></trkpt><trkpt lat="43.0975914" lon="12.388573"><ele>342.0</ele><time>2026-04-25T16:24:56.604Z</time></trkpt><trkpt lat="43.0977138" lon="12.3885408"><ele>341.5</ele><time>2026-04-25T16:24:57.605Z</time></trkpt><trkpt lat="43.0978424" lon="12.3884649"><ele>341.0</ele><time>2026-04-25T16:24:58.604Z</time></trkpt><trkpt lat="43.09796" lon="12.3883779"><ele>340.5</ele><time>2026-04-25T16:24:59.604Z</time></trkpt><trkpt lat="43.0980563" lon="12.3882569"><ele>340.0</ele><time>2026-04-25T16:25:00.604Z</time></trkpt><trkpt lat="43.0981295" lon="12.3881182"><ele>339.0</ele><time>2026-04-25T16:25:01.605Z</time></trkpt><trkpt lat="43.0981928" lon="12.3879732"><ele>338.0</ele><time>2026-04-25T16:25:02.604Z</time></trkpt><trkpt lat="43.0982142" lon="12.3878007"><ele>337.0</ele><time>2026-04-25T16:25:03.603Z</time></trkpt><trkpt lat="43.0982362" lon="12.3876414"><ele>336.0</ele><time>2026-04-25T16:25:04.605Z</time></trkpt><trkpt lat="43.0982585" lon="12.3875021"><ele>336.0</ele><time>2026-04-25T16:25:05.604Z</time></trkpt><trkpt lat="43.0982806" lon="12.3873838"><ele>336.0</ele><time>2026-04-25T16:25:06.604Z</time></trkpt><trkpt lat="43.0982988" lon="12.3872542"><ele>336.0</ele><time>2026-04-25T16:25:07.605Z</time></trkpt><trkpt lat="43.0983207" lon="12.3871165"><ele>336.0</ele><time>2026-04-25T16:25:08.605Z</time></trkpt><trkpt lat="43.0983374" lon="12.3870003"><ele>336.0</ele><time>2026-04-25T16:25:09.604Z</time></trkpt><trkpt lat="43.0983646" lon="12.3869167"><ele>336.0</ele><time>2026-04-25T16:25:10.603Z</time></trkpt><trkpt lat="43.0983864" lon="12.3868168"><ele>335.4</ele><time>2026-04-25T16:25:11.605Z</time></trkpt><trkpt lat="43.0984341" lon="12.3866573"><ele>334.8</ele><time>2026-04-25T16:25:13.605Z</time></trkpt><trkpt lat="43.0984696" lon="12.3865486"><ele>334.2</ele><time>2026-04-25T16:25:15.605Z</time></trkpt><trkpt lat="43.0985267" lon="12.3863826"><ele>333.59999999999997</ele><time>2026-04-25T16:25:23.604Z</time></trkpt><trkpt lat="43.098576" lon="12.3862631"><ele>333.0</ele><time>2026-04-25T16:25:24.605Z</time></trkpt><trkpt lat="43.098632" lon="12.3861138"><ele>332.0</ele><time>2026-04-25T16:25:25.604Z</time></trkpt><trkpt lat="43.0986993" lon="12.385943"><ele>331.0</ele><time>2026-04-25T16:25:26.603Z</time></trkpt><trkpt lat="43.0987756" lon="12.3857488"><ele>330.0</ele><time>2026-04-25T16:25:27.604Z</time></trkpt><trkpt lat="43.0988543" lon="12.3855537"><ele>328.0</ele><time>2026-04-25T16:25:28.603Z</time></trkpt><trkpt lat="43.0989376" lon="12.3853329"><ele>326.0</ele><time>2026-04-25T16:25:29.605Z</time></trkpt><trkpt lat="43.0990136" lon="12.3851074"><ele>324.0</ele><time>2026-04-25T16:25:30.604Z</time></trkpt><trkpt lat="43.0990832" lon="12.3848707"><ele>324.6666666666667</ele><time>2026-04-25T16:25:31.603Z</time></trkpt><trkpt lat="43.0991577" lon="12.3846292"><ele>325.33333333333337</ele><time>2026-04-25T16:25:32.604Z</time></trkpt><trkpt lat="43.0992293" lon="12.3843884"><ele>326.0</ele><time>2026-04-25T16:25:33.604Z</time></trkpt><trkpt lat="43.0993036" lon="12.3841586"><ele>326.0</ele><time>2026-04-25T16:25:34.605Z</time></trkpt><trkpt lat="43.0993846" lon="12.3839421"><ele>326.0</ele><time>2026-04-25T16:25:35.604Z</time></trkpt><trkpt lat="43.0994638" lon="12.3837272"><ele>326.0</ele><time>2026-04-25T16:25:36.603Z</time></trkpt><trkpt lat="43.0995399" lon="12.3835182"><ele>324.33333333333337</ele><time>2026-04-25T16:25:37.604Z</time></trkpt><trkpt lat="43.0996246" lon="12.383311"><ele>322.6666666666667</ele><time>2026-04-25T16:25:38.603Z</time></trkpt><trkpt lat="43.0997106" lon="12.3831049"><ele>321.0</ele><time>2026-04-25T16:25:39.604Z</time></trkpt><trkpt lat="43.0997853" lon="12.3828941"><ele>321.6666666666667</ele><time>2026-04-25T16:25:40.604Z</time></trkpt><trkpt lat="43.099859" lon="12.3826804"><ele>322.33333333333337</ele><time>2026-04-25T16:25:41.603Z</time></trkpt><trkpt lat="43.0999263" lon="12.3824699"><ele>323.0</ele><time>2026-04-25T16:25:42.605Z</time></trkpt><trkpt lat="43.0999962" lon="12.3822641"><ele>320.5</ele><time>2026-04-25T16:25:43.603Z</time></trkpt><trkpt lat="43.1000667" lon="12.3820714"><ele>318.0</ele><time>2026-04-25T16:25:44.604Z</time></trkpt><trkpt lat="43.1001387" lon="12.381895"><ele>315.5</ele><time>2026-04-25T16:25:45.604Z</time></trkpt><trkpt lat="43.1002008" lon="12.3817453"><ele>313.0</ele><time>2026-04-25T16:25:46.604Z</time></trkpt><trkpt lat="43.1002597" lon="12.3816009"><ele>313.0</ele><time>2026-04-25T16:25:47.603Z</time></trkpt><trkpt lat="43.1003016" lon="12.3815153"><ele>313.0</ele><time>2026-04-25T16:25:48.605Z</time></trkpt><trkpt lat="43.1003377" lon="12.3814299"><ele>313.0</ele><time>2026-04-25T16:25:49.604Z</time></trkpt><trkpt lat="43.1003789" lon="12.3813378"><ele>313.0</ele><time>2026-04-25T16:25:51.603Z</time></trkpt><trkpt lat="43.1004252" lon="12.3812271"><ele>313.0</ele><time>2026-04-25T16:26:10.604Z</time></trkpt><trkpt lat="43.1004479" lon="12.3811438"><ele>313.0</ele><time>2026-04-25T16:26:11.603Z</time></trkpt><trkpt lat="43.100449" lon="12.3809873"><ele>311.5</ele><time>2026-04-25T16:26:12.604Z</time></trkpt><trkpt lat="43.1004532" lon="12.3808344"><ele>310.0</ele><time>2026-04-25T16:26:13.603Z</time></trkpt><trkpt lat="43.1004515" lon="12.380668"><ele>308.5</ele><time>2026-04-25T16:26:14.604Z</time></trkpt><trkpt lat="43.100454" lon="12.3804905"><ele>307.0</ele><time>2026-04-25T16:26:15.604Z</time></trkpt><trkpt lat="43.1004893" lon="12.3803111"><ele>306.75</ele><time>2026-04-25T16:26:16.603Z</time></trkpt><trkpt lat="43.10053" lon="12.380139"><ele>306.5</ele><time>2026-04-25T16:26:17.603Z</time></trkpt><trkpt lat="43.1005916" lon="12.3799781"><ele>306.25</ele><time>2026-04-25T16:26:18.604Z</time></trkpt><trkpt lat="43.1006654" lon="12.3798283"><ele>306.0</ele><time>2026-04-25T16:26:19.603Z</time></trkpt><trkpt lat="43.1007488" lon="12.3796762"><ele>305.75</ele><time>2026-04-25T16:26:20.604Z</time></trkpt><trkpt lat="43.1008361" lon="12.3795333"><ele>305.5</ele><time>2026-04-25T16:26:21.604Z</time></trkpt><trkpt lat="43.1009235" lon="12.3793979"><ele>305.25</ele><time>2026-04-25T16:26:22.605Z</time></trkpt><trkpt lat="43.1010126" lon="12.3792754"><ele>305.0</ele><time>2026-04-25T16:26:23.603Z</time></trkpt><trkpt lat="43.1011033" lon="12.3791575"><ele>305.0</ele><time>2026-04-25T16:26:24.604Z</time></trkpt><trkpt lat="43.1011924" lon="12.3790531"><ele>305.0</ele><time>2026-04-25T16:26:25.604Z</time></trkpt><trkpt lat="43.1012814" lon="12.3789462"><ele>305.0</ele><time>2026-04-25T16:26:26.604Z</time></trkpt><trkpt lat="43.1013746" lon="12.3788532"><ele>305.0</ele><time>2026-04-25T16:26:27.605Z</time></trkpt><trkpt lat="43.1014627" lon="12.3787567"><ele>304.4</ele><time>2026-04-25T16:26:28.605Z</time></trkpt><trkpt lat="43.1015472" lon="12.3786747"><ele>303.8</ele><time>2026-04-25T16:26:29.604Z</time></trkpt><trkpt lat="43.1016289" lon="12.3785991"><ele>303.2</ele><time>2026-04-25T16:26:30.604Z</time></trkpt><trkpt lat="43.1016957" lon="12.378524"><ele>302.6</ele><time>2026-04-25T16:26:31.604Z</time></trkpt><trkpt lat="43.1017624" lon="12.3784561"><ele>302.0</ele><time>2026-04-25T16:26:32.604Z</time></trkpt><trkpt lat="43.1018325" lon="12.3783914"><ele>302.0</ele><time>2026-04-25T16:26:33.603Z</time></trkpt><trkpt lat="43.1018962" lon="12.3783303"><ele>302.0</ele><time>2026-04-25T16:26:34.604Z</time></trkpt><trkpt lat="43.1019491" lon="12.378277"><ele>302.0</ele><time>2026-04-25T16:26:35.604Z</time></trkpt><trkpt lat="43.1020053" lon="12.378229"><ele>302.0</ele><time>2026-04-25T16:26:36.605Z</time></trkpt><trkpt lat="43.1021053" lon="12.3781392"><ele>302.0</ele><time>2026-04-25T16:26:38.605Z</time></trkpt><trkpt lat="43.1022027" lon="12.3780408"><ele>301.8</ele><time>2026-04-25T16:26:40.603Z</time></trkpt><trkpt lat="43.1022819" lon="12.3779778"><ele>301.6</ele><time>2026-04-25T16:26:42.604Z</time></trkpt><trkpt lat="43.1023554" lon="12.3779234"><ele>301.40000000000003</ele><time>2026-04-25T16:26:47.604Z</time></trkpt><trkpt lat="43.1024416" lon="12.3778573"><ele>301.2</ele><time>2026-04-25T16:26:50.604Z</time></trkpt><trkpt lat="43.102549" lon="12.3778093"><ele>301.0</ele><time>2026-04-25T16:26:52.604Z</time></trkpt><trkpt lat="43.1026153" lon="12.3777894"><ele>301.0</ele><time>2026-04-25T16:26:53.603Z</time></trkpt><trkpt lat="43.1026953" lon="12.3777743"><ele>301.0</ele><time>2026-04-25T16:26:54.604Z</time></trkpt><trkpt lat="43.1027744" lon="12.3777496"><ele>301.0</ele><time>2026-04-25T16:26:55.603Z</time></trkpt><trkpt lat="43.1028528" lon="12.3777229"><ele>301.0</ele><time>2026-04-25T16:26:56.603Z</time></trkpt><trkpt lat="43.1029357" lon="12.3777043"><ele>301.0</ele><time>2026-04-25T16:26:57.603Z</time></trkpt><trkpt lat="43.1030197" lon="12.3776807"><ele>301.0</ele><time>2026-04-25T16:26:58.604Z</time></trkpt><trkpt lat="43.1030983" lon="12.377651"><ele>301.0</ele><time>2026-04-25T16:26:59.604Z</time></trkpt><trkpt lat="43.1031783" lon="12.3776091"><ele>301.0</ele><time>2026-04-25T16:27:00.604Z</time></trkpt><trkpt lat="43.1032534" lon="12.377541"><ele>301.0</ele><time>2026-04-25T16:27:01.603Z</time></trkpt><trkpt lat="43.1033316" lon="12.3774658"><ele>301.0</ele><time>2026-04-25T16:27:02.603Z</time></trkpt><trkpt lat="43.1033997" lon="12.3773786"><ele>301.0</ele><time>2026-04-25T16:27:03.603Z</time></trkpt><trkpt lat="43.103465" lon="12.3772875"><ele>301.2</ele><time>2026-04-25T16:27:04.603Z</time></trkpt><trkpt lat="43.1035367" lon="12.3771948"><ele>301.40000000000003</ele><time>2026-04-25T16:27:05.603Z</time></trkpt><trkpt lat="43.1036112" lon="12.3770972"><ele>301.6</ele><time>2026-04-25T16:27:06.604Z</time></trkpt><trkpt lat="43.1036892" lon="12.3769959"><ele>301.8</ele><time>2026-04-25T16:27:07.603Z</time></trkpt><trkpt lat="43.1037719" lon="12.3768977"><ele>302.0</ele><time>2026-04-25T16:27:08.603Z</time></trkpt><trkpt lat="43.1038577" lon="12.3768004"><ele>302.0</ele><time>2026-04-25T16:27:09.605Z</time></trkpt><trkpt lat="43.1039402" lon="12.3767048"><ele>302.0</ele><time>2026-04-25T16:27:10.604Z</time></trkpt><trkpt lat="43.104012" lon="12.3766128"><ele>302.0</ele><time>2026-04-25T16:27:11.604Z</time></trkpt><trkpt lat="43.1040841" lon="12.3765403"><ele>302.0</ele><time>2026-04-25T16:27:12.603Z</time></trkpt><trkpt lat="43.1041621" lon="12.3764779"><ele>302.0</ele><time>2026-04-25T16:27:13.603Z</time></trkpt><trkpt lat="43.1042463" lon="12.3764401"><ele>303.2</ele><time>2026-04-25T16:27:14.603Z</time></trkpt><trkpt lat="43.1043382" lon="12.3764429"><ele>304.4</ele><time>2026-04-25T16:27:15.603Z</time></trkpt><trkpt lat="43.1044268" lon="12.3764735"><ele>305.6</ele><time>2026-04-25T16:27:16.604Z</time></trkpt><trkpt lat="43.1045051" lon="12.3765412"><ele>306.8</ele><time>2026-04-25T16:27:17.604Z</time></trkpt><trkpt lat="43.1045808" lon="12.376625"><ele>308.0</ele><time>2026-04-25T16:27:18.603Z</time></trkpt><trkpt lat="43.1046492" lon="12.3767371"><ele>308.0</ele><time>2026-04-25T16:27:19.604Z</time></trkpt><trkpt lat="43.1047241" lon="12.376849"><ele>308.0</ele><time>2026-04-25T16:27:20.604Z</time></trkpt><trkpt lat="43.1048138" lon="12.3769729"><ele>308.0</ele><time>2026-04-25T16:27:21.603Z</time></trkpt><trkpt lat="43.1049059" lon="12.3771012"><ele>308.0</ele><time>2026-04-25T16:27:22.603Z</time></trkpt><trkpt lat="43.1050057" lon="12.3772356"><ele>310.25</ele><time>2026-04-25T16:27:23.602Z</time></trkpt><trkpt lat="43.1051006" lon="12.3773755"><ele>312.5</ele><time>2026-04-25T16:27:24.604Z</time></trkpt><trkpt lat="43.1051906" lon="12.3775186"><ele>314.75</ele><time>2026-04-25T16:27:25.603Z</time></trkpt><trkpt lat="43.1052834" lon="12.377659"><ele>317.0</ele><time>2026-04-25T16:27:26.604Z</time></trkpt><trkpt lat="43.1053687" lon="12.3777974"><ele>317.0</ele><time>2026-04-25T16:27:27.604Z</time></trkpt><trkpt lat="43.1054498" lon="12.3779118"><ele>317.0</ele><time>2026-04-25T16:27:28.605Z</time></trkpt><trkpt lat="43.1055212" lon="12.3780268"><ele>317.0</ele><time>2026-04-25T16:27:29.604Z</time></trkpt><trkpt lat="43.1055888" lon="12.3781219"><ele>317.0</ele><time>2026-04-25T16:27:30.604Z</time></trkpt><trkpt lat="43.1056645" lon="12.3782189"><ele>317.0</ele><time>2026-04-25T16:27:31.604Z</time></trkpt><trkpt lat="43.1057402" lon="12.3783077"><ele>317.8</ele><time>2026-04-25T16:27:32.604Z</time></trkpt><trkpt lat="43.1058072" lon="12.3783845"><ele>318.6</ele><time>2026-04-25T16:27:33.604Z</time></trkpt><trkpt lat="43.1058763" lon="12.3784435"><ele>319.40000000000003</ele><time>2026-04-25T16:27:34.603Z</time></trkpt><trkpt lat="43.1059444" lon="12.3784985"><ele>320.2</ele><time>2026-04-25T16:27:35.603Z</time></trkpt><trkpt lat="43.1060595" lon="12.3785192"><ele>321.0</ele><time>2026-04-25T16:27:37.605Z</time></trkpt><trkpt lat="43.1061378" lon="12.3784027"><ele>321.0</ele><time>2026-04-25T16:27:39.604Z</time></trkpt><trkpt lat="43.1061622" lon="12.3783123"><ele>321.0</ele><time>2026-04-25T16:27:40.603Z</time></trkpt><trkpt lat="43.1061644" lon="12.3781818"><ele>321.0</ele><time>2026-04-25T16:27:41.604Z</time></trkpt><trkpt lat="43.1061662" lon="12.3780638"><ele>321.0</ele><time>2026-04-25T16:27:42.604Z</time></trkpt><trkpt lat="43.1061617" lon="12.3779497"><ele>321.0</ele><time>2026-04-25T16:27:43.605Z</time></trkpt><trkpt lat="43.1061558" lon="12.3778401"><ele>321.0</ele><time>2026-04-25T16:27:44.604Z</time></trkpt><trkpt lat="43.106155" lon="12.3777218"><ele>320.0</ele><time>2026-04-25T16:27:45.602Z</time></trkpt><trkpt lat="43.1061496" lon="12.3775878"><ele>319.0</ele><time>2026-04-25T16:27:46.603Z</time></trkpt><trkpt lat="43.1061464" lon="12.3774679"><ele>318.0</ele><time>2026-04-25T16:27:47.603Z</time></trkpt><trkpt lat="43.1061276" lon="12.3773299"><ele>317.0</ele><time>2026-04-25T16:27:48.603Z</time></trkpt><trkpt lat="43.1061007" lon="12.3771886"><ele>316.0</ele><time>2026-04-25T16:27:49.605Z</time></trkpt><trkpt lat="43.1060398" lon="12.3770479"><ele>315.40000000000003</ele><time>2026-04-25T16:27:50.602Z</time></trkpt><trkpt lat="43.1059839" lon="12.3769066"><ele>314.8</ele><time>2026-04-25T16:27:51.604Z</time></trkpt><trkpt lat="43.1059097" lon="12.3767734"><ele>314.20000000000005</ele><time>2026-04-25T16:27:52.604Z</time></trkpt><trkpt lat="43.10584" lon="12.3766703"><ele>313.6</ele><time>2026-04-25T16:27:53.603Z</time></trkpt><trkpt lat="43.1057809" lon="12.3765903"><ele>313.0</ele><time>2026-04-25T16:27:54.605Z</time></trkpt><trkpt lat="43.1057257" lon="12.3765031"><ele>312.8</ele><time>2026-04-25T16:27:55.604Z</time></trkpt><trkpt lat="43.1056766" lon="12.3764242"><ele>312.6</ele><time>2026-04-25T16:27:56.603Z</time></trkpt><trkpt lat="43.1056096" lon="12.3763134"><ele>312.4</ele><time>2026-04-25T16:27:57.603Z</time></trkpt><trkpt lat="43.1055488" lon="12.3762208"><ele>312.2</ele><time>2026-04-25T16:27:58.603Z</time></trkpt><trkpt lat="43.1054679" lon="12.3761158"><ele>312.0</ele><time>2026-04-25T16:27:59.603Z</time></trkpt><trkpt lat="43.1054049" lon="12.3760247"><ele>311.0</ele><time>2026-04-25T16:28:00.603Z</time></trkpt><trkpt lat="43.105345" lon="12.3759396"><ele>310.0</ele><time>2026-04-25T16:28:01.604Z</time></trkpt><trkpt lat="43.1053123" lon="12.3758537"><ele>309.0</ele><time>2026-04-25T16:28:02.603Z</time></trkpt><trkpt lat="43.105252" lon="12.3757853"><ele>308.0</ele><time>2026-04-25T16:28:05.604Z</time></trkpt><trkpt lat="43.1052082" lon="12.3757071"><ele>307.0</ele><time>2026-04-25T16:28:07.603Z</time></trkpt><trkpt lat="43.1051506" lon="12.3756121"><ele>306.0</ele><time>2026-04-25T16:28:09.604Z</time></trkpt><trkpt lat="43.1051103" lon="12.375475"><ele>305.40000000000003</ele><time>2026-04-25T16:28:11.603Z</time></trkpt><trkpt lat="43.1051112" lon="12.3753377"><ele>304.8</ele><time>2026-04-25T16:28:13.602Z</time></trkpt><trkpt lat="43.1051471" lon="12.3752332"><ele>304.20000000000005</ele><time>2026-04-25T16:28:15.603Z</time></trkpt><trkpt lat="43.1052183" lon="12.3751472"><ele>303.6</ele><time>2026-04-25T16:28:17.604Z</time></trkpt><trkpt lat="43.1052807" lon="12.3750857"><ele>303.0</ele><time>2026-04-25T16:28:18.603Z</time></trkpt><trkpt lat="43.1053608" lon="12.3750144"><ele>303.0</ele><time>2026-04-25T16:28:19.605Z</time></trkpt><trkpt lat="43.1054501" lon="12.3749333"><ele>303.0</ele><time>2026-04-25T16:28:20.604Z</time></trkpt><trkpt lat="43.1055314" lon="12.3748471"><ele>303.0</ele><time>2026-04-25T16:28:21.603Z</time></trkpt><trkpt lat="43.1055964" lon="12.3747643"><ele>303.0</ele><time>2026-04-25T16:28:22.604Z</time></trkpt><trkpt lat="43.1056547" lon="12.3746868"><ele>303.0</ele><time>2026-04-25T16:28:23.603Z</time></trkpt><trkpt lat="43.1057033" lon="12.3746122"><ele>302.7142857142857</ele><time>2026-04-25T16:28:24.604Z</time></trkpt><trkpt lat="43.1057391" lon="12.3745272"><ele>302.42857142857144</ele><time>2026-04-25T16:28:25.603Z</time></trkpt><trkpt lat="43.1057728" lon="12.3744342"><ele>302.1428571428571</ele><time>2026-04-25T16:28:26.603Z</time></trkpt><trkpt lat="43.1057853" lon="12.3743331"><ele>301.8571428571429</ele><time>2026-04-25T16:28:27.603Z</time></trkpt><trkpt lat="43.1057912" lon="12.3742206"><ele>301.57142857142856</ele><time>2026-04-25T16:28:28.603Z</time></trkpt><trkpt lat="43.1057985" lon="12.3741277"><ele>301.2857142857143</ele><time>2026-04-25T16:28:29.603Z</time></trkpt><trkpt lat="43.1057763" lon="12.3740349"><ele>301.0</ele><time>2026-04-25T16:28:30.603Z</time></trkpt><trkpt lat="43.1057289" lon="12.3739183"><ele>300.5</ele><time>2026-04-25T16:28:31.602Z</time></trkpt><trkpt lat="43.1056773" lon="12.3738186"><ele>300.0</ele><time>2026-04-25T16:28:32.604Z</time></trkpt><trkpt lat="43.1056244" lon="12.3736898"><ele>299.5</ele><time>2026-04-25T16:28:33.603Z</time></trkpt><trkpt lat="43.1055501" lon="12.373544"><ele>299.0</ele><time>2026-04-25T16:28:34.604Z</time></trkpt><trkpt lat="43.1054769" lon="12.3734008"><ele>299.0</ele><time>2026-04-25T16:28:35.603Z</time></trkpt><trkpt lat="43.1054447" lon="12.3732472"><ele>299.0</ele><time>2026-04-25T16:28:36.605Z</time></trkpt><trkpt lat="43.1054168" lon="12.3730949"><ele>299.0</ele><time>2026-04-25T16:28:37.604Z</time></trkpt><trkpt lat="43.1054041" lon="12.3729594"><ele>299.0</ele><time>2026-04-25T16:28:38.603Z</time></trkpt><trkpt lat="43.1053907" lon="12.3728365"><ele>299.0</ele><time>2026-04-25T16:28:39.603Z</time></trkpt><trkpt lat="43.1053911" lon="12.3727363"><ele>299.1428571428571</ele><time>2026-04-25T16:28:40.604Z</time></trkpt><trkpt lat="43.1053944" lon="12.3726383"><ele>299.2857142857143</ele><time>2026-04-25T16:28:41.603Z</time></trkpt><trkpt lat="43.1054046" lon="12.3725449"><ele>299.42857142857144</ele><time>2026-04-25T16:28:42.603Z</time></trkpt><trkpt lat="43.1054237" lon="12.3724515"><ele>299.57142857142856</ele><time>2026-04-25T16:28:43.603Z</time></trkpt><trkpt lat="43.1054503" lon="12.3723692"><ele>299.7142857142857</ele><time>2026-04-25T16:28:44.603Z</time></trkpt><trkpt lat="43.1054906" lon="12.3722898"><ele>299.85714285714283</ele><time>2026-04-25T16:28:45.605Z</time></trkpt><trkpt lat="43.1055282" lon="12.3722161"><ele>300.0</ele><time>2026-04-25T16:28:46.603Z</time></trkpt><trkpt lat="43.1055695" lon="12.3721466"><ele>299.85714285714283</ele><time>2026-04-25T16:28:47.604Z</time></trkpt><trkpt lat="43.1056161" lon="12.3720727"><ele>299.7142857142857</ele><time>2026-04-25T16:28:48.603Z</time></trkpt><trkpt lat="43.1056632" lon="12.3720008"><ele>299.57142857142856</ele><time>2026-04-25T16:28:49.604Z</time></trkpt><trkpt lat="43.1057114" lon="12.3719293"><ele>299.42857142857144</ele><time>2026-04-25T16:28:50.604Z</time></trkpt><trkpt lat="43.10576" lon="12.3718565"><ele>299.2857142857143</ele><time>2026-04-25T16:28:51.603Z</time></trkpt><trkpt lat="43.105819" lon="12.3717854"><ele>299.1428571428571</ele><time>2026-04-25T16:28:52.604Z</time></trkpt><trkpt lat="43.1058733" lon="12.3717106"><ele>299.0</ele><time>2026-04-25T16:28:53.603Z</time></trkpt><trkpt lat="43.1059252" lon="12.3716207"><ele>299.0</ele><time>2026-04-25T16:28:54.603Z</time></trkpt><trkpt lat="43.1059717" lon="12.3715419"><ele>299.0</ele><time>2026-04-25T16:28:55.604Z</time></trkpt><trkpt lat="43.1060181" lon="12.3714696"><ele>299.0</ele><time>2026-04-25T16:28:56.603Z</time></trkpt><trkpt lat="43.1060639" lon="12.3714034"><ele>299.0</ele><time>2026-04-25T16:28:57.604Z</time></trkpt><trkpt lat="43.1060651" lon="12.3712499"><ele>299.0</ele><time>2026-04-25T16:28:59.604Z</time></trkpt><trkpt lat="43.1060169" lon="12.3711161"><ele>299.0</ele><time>2026-04-25T16:29:01.603Z</time></trkpt><trkpt lat="43.1059391" lon="12.3709882"><ele>297.0</ele><time>2026-04-25T16:29:03.603Z</time></trkpt><trkpt lat="43.1058965" lon="12.3709151"><ele>297.0</ele><time>2026-04-25T16:29:04.604Z</time></trkpt><trkpt lat="43.1058212" lon="12.3707805"><ele>297.0</ele><time>2026-04-25T16:29:06.604Z</time></trkpt><trkpt lat="43.1057372" lon="12.3707005"><ele>296.0</ele><time>2026-04-25T16:29:08.603Z</time></trkpt><trkpt lat="43.1056684" lon="12.370725"><ele>296.0</ele><time>2026-04-25T16:29:11.603Z</time></trkpt></trkseg></trk></gpx>